sensor_id;sensor_type;location;lat;lon;timestamp;pressure;altitude;pressure_sealevel;temperature;humidity
72210;BME280;60113;48.762;12.302;2023-06-22T00:00:51;97470.50;;;14.91;75.52
72210;BME280;60113;48.762;12.302;2023-06-22T00:03:18;97472.03;;;14.94;78.60
72210;BME280;60113;48.762;12.302;2023-06-22T00:06:06;97459.78;;;14.93;70.34
72210;BME280;60113;48.762;12.302;2023-06-22T00:08:44;97463.38;;;14.92;80.82
72210;BME280;60113;48.762;12.302;2023-06-22T00:11:12;97454.75;;;14.90;87.76
72210;BME280;60113;48.762;12.302;2023-06-22T00:13:47;97460.34;;;14.86;73.60
72210;BME280;60113;48.762;12.302;2023-06-22T00:16:16;97456.84;;;14.86;80.09
72210;BME280;60113;48.762;12.302;2023-06-22T00:18:45;97459.63;;;14.84;83.47
72210;BME280;60113;48.762;12.302;2023-06-22T00:21:21;97446.81;;;14.80;70.02
72210;BME280;60113;48.762;12.302;2023-06-22T00:23:59;97430.22;;;14.78;77.88
72210;BME280;60113;48.762;12.302;2023-06-22T00:26:30;97416.31;;;14.75;72.72
72210;BME280;60113;48.762;12.302;2023-06-22T00:28:56;97411.97;;;14.74;72.03
72210;BME280;60113;48.762;12.302;2023-06-22T00:31:21;97414.75;;;14.73;79.47
72210;BME280;60113;48.762;12.302;2023-06-22T00:33:53;97419.50;;;14.69;80.96
72210;BME280;60113;48.762;12.302;2023-06-22T00:36:37;97409.75;;;14.70;74.14
72210;BME280;60113;48.762;12.302;2023-06-22T00:39:15;97404.44;;;14.70;82.50
72210;BME280;60113;48.762;12.302;2023-06-22T00:41:43;97402.13;;;14.67;71.27
72210;BME280;60113;48.762;12.302;2023-06-22T00:44:12;97402.25;;;14.65;72.96
72210;BME280;60113;48.762;12.302;2023-06-22T00:46:53;97400.56;;;14.64;75.50
72210;BME280;60113;48.762;12.302;2023-06-22T00:49:31;97394.75;;;14.60;78.49
72210;BME280;60113;48.762;12.302;2023-06-22T00:51:59;97381.78;;;14.57;73.10
72210;BME280;60113;48.762;12.302;2023-06-22T00:54:31;97360.94;;;14.54;70.11
72210;BME280;60113;48.762;12.302;2023-06-22T00:57:15;97377.88;;;14.52;72.40
72210;BME280;60113;48.762;12.302;2023-06-22T00:59:48;97392.09;;;14.50;75.60
72210;BME280;60113;48.762;12.302;2023-06-22T01:02:16;97387.38;;;14.54;75.06
72210;BME280;60113;48.762;12.302;2023-06-22T01:04:45;97374.97;;;14.55;81.68
72210;BME280;60113;48.762;12.302;2023-06-22T01:07:23;97362.59;;;14.55;80.72
72210;BME280;60113;48.762;12.302;2023-06-22T01:10:14;97359.81;;;14.57;80.34
72210;BME280;60113;48.762;12.302;2023-06-22T01:12:49;97372.16;;;14.56;84.33
72210;BME280;60113;48.762;12.302;2023-06-22T01:15:53;97367.72;;;14.57;83.18
72210;BME280;60113;48.762;12.302;2023-06-22T01:18:47;97370.09;;;14.50;79.12
72210;BME280;60113;48.762;12.302;2023-06-22T01:21:19;97362.84;;;14.52;94.03
72210;BME280;60113;48.762;12.302;2023-06-22T01:24:17;97367.19;;;14.63;97.33
72210;BME280;60113;48.762;12.302;2023-06-22T01:30:01;97342.13;;;14.57;83.61
72210;BME280;60113;48.762;12.302;2023-06-22T01:32:35;97340.88;;;14.61;81.02
72210;BME280;60113;48.762;12.302;2023-06-22T01:35:06;97338.66;;;14.57;76.23
72210;BME280;60113;48.762;12.302;2023-06-22T01:37:36;97342.94;;;14.58;86.47
72210;BME280;60113;48.762;12.302;2023-06-22T01:40:09;97339.78;;;14.54;84.98
72210;BME280;60113;48.762;12.302;2023-06-22T01:42:44;97335.56;;;14.52;86.77
72210;BME280;60113;48.762;12.302;2023-06-22T01:45:19;97332.69;;;14.45;85.81
72210;BME280;60113;48.762;12.302;2023-06-22T01:47:48;97337.25;;;14.43;88.20
72210;BME280;60113;48.762;12.302;2023-06-22T01:50:25;97353.53;;;14.38;84.31
72210;BME280;60113;48.762;12.302;2023-06-22T01:52:56;97351.16;;;14.35;81.42
72210;BME280;60113;48.762;12.302;2023-06-22T01:55:25;97356.03;;;14.30;83.29
72210;BME280;60113;48.762;12.302;2023-06-22T01:58:00;97358.41;;;14.23;74.71
72210;BME280;60113;48.762;12.302;2023-06-22T02:00:27;97362.28;;;14.19;80.33
72210;BME280;60113;48.762;12.302;2023-06-22T02:03:05;97355.59;;;14.15;71.40
72210;BME280;60113;48.762;12.302;2023-06-22T02:05:50;97367.41;;;14.10;79.11
72210;BME280;60113;48.762;12.302;2023-06-22T02:08:49;97363.34;;;14.06;83.74
72210;BME280;60113;48.762;12.302;2023-06-22T02:11:19;97375.31;;;14.00;81.96
72210;BME280;60113;48.762;12.302;2023-06-22T02:13:45;97378.09;;;13.99;84.99
72210;BME280;60113;48.762;12.302;2023-06-22T02:16:22;97376.84;;;13.93;74.96
72210;BME280;60113;48.762;12.302;2023-06-22T02:18:48;97385.88;;;13.91;73.16
72210;BME280;60113;48.762;12.302;2023-06-22T02:21:19;97387.81;;;13.88;75.40
72210;BME280;60113;48.762;12.302;2023-06-22T02:23:45;97394.88;;;13.88;84.15
72210;BME280;60113;48.762;12.302;2023-06-22T02:26:16;97400.03;;;13.90;82.35
72210;BME280;60113;48.762;12.302;2023-06-22T02:28:45;97403.13;;;13.95;94.17
72210;BME280;60113;48.762;12.302;2023-06-22T02:31:11;97398.97;;;14.02;98.74
72210;BME280;60113;48.762;12.302;2023-06-22T02:33:42;97394.25;;;14.06;81.68
72210;BME280;60113;48.762;12.302;2023-06-22T02:36:14;97379.22;;;14.06;73.61
72210;BME280;60113;48.762;12.302;2023-06-22T02:38:43;97378.66;;;14.12;78.26
72210;BME280;60113;48.762;12.302;2023-06-22T02:41:17;97369.78;;;14.13;71.60
72210;BME280;60113;48.762;12.302;2023-06-22T02:43:46;97370.06;;;14.20;80.75
72210;BME280;60113;48.762;12.302;2023-06-22T02:46:13;97375.66;;;14.37;100.00
72210;BME280;60113;48.762;12.302;2023-06-22T02:48:57;97378.97;;;14.39;100.00
72210;BME280;60113;48.762;12.302;2023-06-22T02:51:32;97368.56;;;14.37;99.13
72210;BME280;60113;48.762;12.302;2023-06-22T02:54:02;97368.13;;;14.42;100.00
72210;BME280;60113;48.762;12.302;2023-06-22T02:56:30;97362.97;;;14.41;85.94
72210;BME280;60113;48.762;12.302;2023-06-22T02:58:56;97363.13;;;14.39;78.73
72210;BME280;60113;48.762;12.302;2023-06-22T03:01:44;97356.31;;;14.36;79.94
72210;BME280;60113;48.762;12.302;2023-06-22T03:04:10;97354.38;;;14.38;85.72
72210;BME280;60113;48.762;12.302;2023-06-22T03:06:44;97352.00;;;14.45;96.73
72210;BME280;60113;48.762;12.302;2023-06-22T03:09:12;97359.94;;;14.85;100.00
72210;BME280;60113;48.762;12.302;2023-06-22T03:11:38;97362.19;;;14.80;100.00
72210;BME280;60113;48.762;12.302;2023-06-22T03:14:12;97349.19;;;14.96;100.00
72210;BME280;60113;48.762;12.302;2023-06-22T03:16:53;97349.38;;;14.85;100.00
72210;BME280;60113;48.762;12.302;2023-06-22T03:19:18;97347.41;;;14.87;100.00
72210;BME280;60113;48.762;12.302;2023-06-22T03:21:49;97339.47;;;14.87;100.00
72210;BME280;60113;48.762;12.302;2023-06-22T03:24:15;97353.13;;;14.82;99.14
72210;BME280;60113;48.762;12.302;2023-06-22T03:26:40;97350.59;;;14.81;100.00
72210;BME280;60113;48.762;12.302;2023-06-22T03:29:15;97360.50;;;14.79;100.00
72210;BME280;60113;48.762;12.302;2023-06-22T03:31:43;97354.63;;;14.75;100.00
72210;BME280;60113;48.762;12.302;2023-06-22T03:34:12;97362.31;;;14.88;100.00
72210;BME280;60113;48.762;12.302;2023-06-22T03:36:40;97361.56;;;14.76;100.00
72210;BME280;60113;48.762;12.302;2023-06-22T03:39:15;97368.84;;;14.84;100.00
72210;BME280;60113;48.762;12.302;2023-06-22T03:41:43;97362.88;;;14.82;100.00
72210;BME280;60113;48.762;12.302;2023-06-22T03:44:11;97347.41;;;14.77;100.00
72210;BME280;60113;48.762;12.302;2023-06-22T03:46:44;97359.09;;;14.84;100.00
72210;BME280;60113;48.762;12.302;2023-06-22T03:49:09;97349.75;;;14.70;100.00
72210;BME280;60113;48.762;12.302;2023-06-22T03:51:38;97352.13;;;14.73;100.00
72210;BME280;60113;48.762;12.302;2023-06-22T03:54:06;97343.09;;;14.66;100.00
72210;BME280;60113;48.762;12.302;2023-06-22T03:56:36;97343.63;;;14.70;100.00
72210;BME280;60113;48.762;12.302;2023-06-22T03:59:05;97339.47;;;14.77;100.00
72210;BME280;60113;48.762;12.302;2023-06-22T04:01:30;97345.56;;;14.78;100.00
72210;BME280;60113;48.762;12.302;2023-06-22T04:04:11;97348.81;;;14.81;100.00
72210;BME280;60113;48.762;12.302;2023-06-22T04:06:50;97348.38;;;14.86;100.00
72210;BME280;60113;48.762;12.302;2023-06-22T04:09:15;97347.97;;;14.91;100.00
72210;BME280;60113;48.762;12.302;2023-06-22T04:11:44;97348.91;;;14.99;100.00
72210;BME280;60113;48.762;12.302;2023-06-22T04:14:16;97351.16;;;14.94;100.00
72210;BME280;60113;48.762;12.302;2023-06-22T04:16:44;97353.53;;;14.97;100.00
72210;BME280;60113;48.762;12.302;2023-06-22T04:19:18;97357.69;;;15.00;100.00
72210;BME280;60113;48.762;12.302;2023-06-22T04:21:44;97347.38;;;14.97;100.00
72210;BME280;60113;48.762;12.302;2023-06-22T04:24:12;97358.25;;;15.04;100.00
72210;BME280;60113;48.762;12.302;2023-06-22T04:26:50;97357.53;;;15.11;100.00
72210;BME280;60113;48.762;12.302;2023-06-22T04:29:20;97367.00;;;15.04;100.00
72210;BME280;60113;48.762;12.302;2023-06-22T04:31:49;97370.28;;;15.26;100.00
72210;BME280;60113;48.762;12.302;2023-06-22T04:34:16;97367.66;;;15.26;100.00
72210;BME280;60113;48.762;12.302;2023-06-22T04:36:44;97364.28;;;15.34;100.00
72210;BME280;60113;48.762;12.302;2023-06-22T04:39:11;97368.59;;;15.35;100.00
72210;BME280;60113;48.762;12.302;2023-06-22T04:41:37;97368.25;;;15.58;100.00
72210;BME280;60113;48.762;12.302;2023-06-22T04:44:16;97360.88;;;15.52;100.00
72210;BME280;60113;48.762;12.302;2023-06-22T04:46:52;97360.34;;;15.48;100.00
72210;BME280;60113;48.762;12.302;2023-06-22T04:49:35;97362.81;;;15.59;100.00
72210;BME280;60113;48.762;12.302;2023-06-22T04:52:16;97359.22;;;15.79;100.00
72210;BME280;60113;48.762;12.302;2023-06-22T04:54:43;97359.47;;;15.85;100.00
72210;BME280;60113;48.762;12.302;2023-06-22T04:57:16;97357.06;;;15.92;100.00
72210;BME280;60113;48.762;12.302;2023-06-22T04:59:53;97364.13;;;16.02;100.00
72210;BME280;60113;48.762;12.302;2023-06-22T05:02:18;97359.41;;;15.95;100.00
72210;BME280;60113;48.762;12.302;2023-06-22T05:04:50;97349.22;;;16.00;100.00
72210;BME280;60113;48.762;12.302;2023-06-22T05:07:16;97349.75;;;16.04;100.00
72210;BME280;60113;48.762;12.302;2023-06-22T05:09:41;97353.72;;;16.18;100.00
72210;BME280;60113;48.762;12.302;2023-06-22T05:12:07;97352.81;;;16.28;100.00
72210;BME280;60113;48.762;12.302;2023-06-22T05:14:33;97355.69;;;16.34;100.00
72210;BME280;60113;48.762;12.302;2023-06-22T05:16:58;97352.56;;;16.39;100.00
72210;BME280;60113;48.762;12.302;2023-06-22T05:19:47;97350.00;;;16.66;100.00
72210;BME280;60113;48.762;12.302;2023-06-22T05:22:19;97354.41;;;17.02;100.00
72210;BME280;60113;48.762;12.302;2023-06-22T05:24:47;97352.56;;;17.47;100.00
72210;BME280;60113;48.762;12.302;2023-06-22T05:27:13;97357.22;;;17.96;100.00
72210;BME280;60113;48.762;12.302;2023-06-22T05:30:15;97348.69;;;18.28;99.83
72210;BME280;60113;48.762;12.302;2023-06-22T05:32:41;97354.03;;;18.53;94.80
72210;BME280;60113;48.762;12.302;2023-06-22T05:35:22;97351.69;;;18.91;90.31
72210;BME280;60113;48.762;12.302;2023-06-22T05:37:47;97354.16;;;19.26;91.78
72210;BME280;60113;48.762;12.302;2023-06-22T05:40:32;97351.78;;;19.48;89.04
72210;BME280;60113;48.762;12.302;2023-06-22T05:42:59;97348.50;;;19.78;86.96
72210;BME280;60113;48.762;12.302;2023-06-22T05:45:29;97347.88;;;20.07;86.25
72210;BME280;60113;48.762;12.302;2023-06-22T05:47:55;97341.50;;;20.40;84.48
72210;BME280;60113;48.762;12.302;2023-06-22T05:50:23;97337.47;;;20.68;84.23
72210;BME280;60113;48.762;12.302;2023-06-22T05:52:48;97334.53;;;20.78;83.90
72210;BME280;60113;48.762;12.302;2023-06-22T05:55:14;97335.91;;;20.73;84.47
72210;BME280;60113;48.762;12.302;2023-06-22T05:57:44;97332.03;;;20.76;83.72
72210;BME280;60113;48.762;12.302;2023-06-22T06:00:24;97327.13;;;20.88;84.10
72210;BME280;60113;48.762;12.302;2023-06-22T06:02:50;97337.38;;;20.99;83.51
72210;BME280;60113;48.762;12.302;2023-06-22T06:05:15;97335.00;;;21.05;83.09
72210;BME280;60113;48.762;12.302;2023-06-22T06:07:42;97321.81;;;21.18;82.60
72210;BME280;60113;48.762;12.302;2023-06-22T06:10:11;97324.97;;;21.37;82.84
72210;BME280;60113;48.762;12.302;2023-06-22T06:12:48;97329.19;;;21.61;82.50
72210;BME280;60113;48.762;12.302;2023-06-22T06:15:14;97326.41;;;21.85;82.32
72210;BME280;60113;48.762;12.302;2023-06-22T06:17:58;97330.59;;;22.09;81.77
72210;BME280;60113;48.762;12.302;2023-06-22T06:20:32;97324.13;;;22.41;81.61
72210;BME280;60113;48.762;12.302;2023-06-22T06:23:17;97315.50;;;22.60;80.86
72210;BME280;60113;48.762;12.302;2023-06-22T06:25:42;97324.81;;;22.71;78.32
72210;BME280;60113;48.762;12.302;2023-06-22T06:28:10;97313.47;;;22.91;79.67
72210;BME280;60113;48.762;12.302;2023-06-22T06:30:36;97321.44;;;23.13;80.53
72210;BME280;60113;48.762;12.302;2023-06-22T06:33:05;97314.34;;;23.34;80.68
72210;BME280;60113;48.762;12.302;2023-06-22T06:35:34;97303.56;;;23.56;79.73
72210;BME280;60113;48.762;12.302;2023-06-22T06:38:02;97305.75;;;23.88;78.59
72210;BME280;60113;48.762;12.302;2023-06-22T06:40:46;97313.63;;;24.09;80.21
72210;BME280;60113;48.762;12.302;2023-06-22T06:43:15;97299.88;;;24.33;80.27
72210;BME280;60113;48.762;12.302;2023-06-22T06:45:49;97300.72;;;24.67;76.52
72210;BME280;60113;48.762;12.302;2023-06-22T06:48:15;97285.06;;;24.91;78.22
72210;BME280;60113;48.762;12.302;2023-06-22T06:50:40;97286.22;;;25.22;79.04
72210;BME280;60113;48.762;12.302;2023-06-22T06:53:15;97286.34;;;25.48;77.78
72210;BME280;60113;48.762;12.302;2023-06-22T06:55:43;97297.06;;;25.68;77.69
72210;BME280;60113;48.762;12.302;2023-06-22T06:58:10;97295.91;;;25.96;75.55
72210;BME280;60113;48.762;12.302;2023-06-22T07:00:50;97284.63;;;26.13;72.39
72210;BME280;60113;48.762;12.302;2023-06-22T07:03:15;97288.03;;;26.27;72.61
72210;BME280;60113;48.762;12.302;2023-06-22T07:05:46;97277.81;;;26.43;76.10
72210;BME280;60113;48.762;12.302;2023-06-22T07:08:12;97276.91;;;26.56;75.92
72210;BME280;60113;48.762;12.302;2023-06-22T07:10:49;97280.06;;;26.71;73.15
72210;BME280;60113;48.762;12.302;2023-06-22T07:13:15;97275.81;;;26.82;72.86
72210;BME280;60113;48.762;12.302;2023-06-22T07:15:43;97278.69;;;26.88;72.61
72210;BME280;60113;48.762;12.302;2023-06-22T07:18:27;97276.44;;;27.10;72.95
72210;BME280;60113;48.762;12.302;2023-06-22T07:20:53;97273.13;;;27.27;71.41
72210;BME280;60113;48.762;12.302;2023-06-22T07:23:24;97270.22;;;27.28;68.93
72210;BME280;60113;48.762;12.302;2023-06-22T07:26:02;97260.91;;;27.43;69.44
72210;BME280;60113;48.762;12.302;2023-06-22T07:28:28;97260.16;;;27.54;70.92
72210;BME280;60113;48.762;12.302;2023-06-22T07:30:58;97256.06;;;27.70;69.16
72210;BME280;60113;48.762;12.302;2023-06-22T07:33:27;97251.59;;;27.76;69.78
72210;BME280;60113;48.762;12.302;2023-06-22T07:35:54;97247.53;;;27.86;69.32
72210;BME280;60113;48.762;12.302;2023-06-22T07:38:19;97243.34;;;28.02;68.47
72210;BME280;60113;48.762;12.302;2023-06-22T07:40:47;97241.63;;;28.07;67.72
72210;BME280;60113;48.762;12.302;2023-06-22T07:43:15;97238.56;;;28.04;67.36
72210;BME280;60113;48.762;12.302;2023-06-22T07:45:48;97239.41;;;28.16;62.46
72210;BME280;60113;48.762;12.302;2023-06-22T07:48:17;97232.78;;;28.31;64.92
72210;BME280;60113;48.762;12.302;2023-06-22T07:50:45;97238.19;;;28.55;63.51
72210;BME280;60113;48.762;12.302;2023-06-22T07:53:14;97228.44;;;28.78;66.65
72210;BME280;60113;48.762;12.302;2023-06-22T07:55:39;97227.53;;;28.96;66.18
72210;BME280;60113;48.762;12.302;2023-06-22T07:58:08;97235.03;;;29.06;65.76
72210;BME280;60113;48.762;12.302;2023-06-22T08:00:34;97227.13;;;29.28;63.35
72210;BME280;60113;48.762;12.302;2023-06-22T08:03:14;97222.16;;;29.37;59.93
72210;BME280;60113;48.762;12.302;2023-06-22T08:05:43;97231.13;;;29.26;64.47
72210;BME280;60113;48.762;12.302;2023-06-22T08:08:11;97223.78;;;29.38;64.46
72210;BME280;60113;48.762;12.302;2023-06-22T08:10:49;97219.34;;;29.32;51.48
72210;BME280;60113;48.762;12.302;2023-06-22T08:13:20;97218.84;;;29.47;62.98
72210;BME280;60113;48.762;12.302;2023-06-22T08:15:46;97236.81;;;29.53;60.17
72210;BME280;60113;48.762;12.302;2023-06-22T08:18:11;97219.50;;;29.54;61.45
72210;BME280;60113;48.762;12.302;2023-06-22T08:20:40;97214.09;;;29.54;60.64
72210;BME280;60113;48.762;12.302;2023-06-22T08:23:08;97217.00;;;29.65;60.19
72210;BME280;60113;48.762;12.302;2023-06-22T08:25:37;97205.97;;;29.83;60.25
72210;BME280;60113;48.762;12.302;2023-06-22T08:28:03;97216.34;;;30.04;60.33
72210;BME280;60113;48.762;12.302;2023-06-22T08:30:28;97218.91;;;30.11;48.94
72210;BME280;60113;48.762;12.302;2023-06-22T08:32:54;97218.88;;;30.40;59.08
72210;BME280;60113;48.762;12.302;2023-06-22T08:35:29;97217.41;;;30.32;57.08
72210;BME280;60113;48.762;12.302;2023-06-22T08:37:55;97219.22;;;30.26;54.92
72210;BME280;60113;48.762;12.302;2023-06-22T08:40:22;97221.75;;;30.33;57.88
72210;BME280;60113;48.762;12.302;2023-06-22T08:42:51;97215.66;;;30.60;54.29
72210;BME280;60113;48.762;12.302;2023-06-22T08:45:19;97220.16;;;30.89;56.19
72210;BME280;60113;48.762;12.302;2023-06-22T08:47:47;97219.56;;;31.04;55.59
72210;BME280;60113;48.762;12.302;2023-06-22T08:50:13;97212.22;;;31.04;55.06
72210;BME280;60113;48.762;12.302;2023-06-22T08:52:41;97203.91;;;31.11;55.70
72210;BME280;60113;48.762;12.302;2023-06-22T08:55:10;97201.38;;;31.04;50.54
72210;BME280;60113;48.762;12.302;2023-06-22T08:57:36;97197.44;;;30.95;54.91
72210;BME280;60113;48.762;12.302;2023-06-22T09:00:10;97198.97;;;31.08;55.40
72210;BME280;60113;48.762;12.302;2023-06-22T09:02:46;97198.59;;;31.22;44.08
72210;BME280;60113;48.762;12.302;2023-06-22T09:05:14;97196.13;;;31.20;51.55
72210;BME280;60113;48.762;12.302;2023-06-22T09:07:41;97194.56;;;31.24;49.89
72210;BME280;60113;48.762;12.302;2023-06-22T09:10:22;97190.72;;;31.42;53.08
72210;BME280;60113;48.762;12.302;2023-06-22T09:12:47;97191.69;;;31.59;52.94
72210;BME280;60113;48.762;12.302;2023-06-22T09:15:13;97196.53;;;31.79;53.81
72210;BME280;60113;48.762;12.302;2023-06-22T09:17:41;97201.06;;;31.96;53.91
72210;BME280;60113;48.762;12.302;2023-06-22T09:20:16;97193.13;;;32.22;52.39
72210;BME280;60113;48.762;12.302;2023-06-22T09:22:41;97191.47;;;32.15;51.98
72210;BME280;60113;48.762;12.302;2023-06-22T09:25:19;97187.97;;;32.20;50.96
72210;BME280;60113;48.762;12.302;2023-06-22T09:27:48;97179.19;;;32.13;43.18
72210;BME280;60113;48.762;12.302;2023-06-22T09:30:16;97174.53;;;32.08;51.63
72210;BME280;60113;48.762;12.302;2023-06-22T09:32:45;97170.78;;;32.14;50.88
72210;BME280;60113;48.762;12.302;2023-06-22T09:35:13;97171.88;;;32.13;51.70
72210;BME280;60113;48.762;12.302;2023-06-22T09:37:41;97170.09;;;32.29;50.67
72210;BME280;60113;48.762;12.302;2023-06-22T09:40:22;97169.13;;;32.46;50.88
72210;BME280;60113;48.762;12.302;2023-06-22T09:42:48;97163.59;;;32.74;51.06
72210;BME280;60113;48.762;12.302;2023-06-22T09:45:13;97170.13;;;32.78;50.65
72210;BME280;60113;48.762;12.302;2023-06-22T09:47:44;97165.38;;;33.01;47.74
72210;BME280;60113;48.762;12.302;2023-06-22T09:50:10;97158.78;;;32.97;49.76
72210;BME280;60113;48.762;12.302;2023-06-22T09:52:44;97160.16;;;32.94;51.56
72210;BME280;60113;48.762;12.302;2023-06-22T09:55:14;97148.19;;;32.90;45.19
72210;BME280;60113;48.762;12.302;2023-06-22T09:57:41;97146.78;;;32.82;48.92
72210;BME280;60113;48.762;12.302;2023-06-22T10:00:13;97142.97;;;32.83;49.54
72210;BME280;60113;48.762;12.302;2023-06-22T10:02:40;97149.78;;;32.86;49.41
72210;BME280;60113;48.762;12.302;2023-06-22T10:05:09;97148.19;;;32.90;50.17
72210;BME280;60113;48.762;12.302;2023-06-22T10:07:37;97154.00;;;33.14;50.89
72210;BME280;60113;48.762;12.302;2023-06-22T10:10:11;97150.81;;;33.33;49.96
72210;BME280;60113;48.762;12.302;2023-06-22T10:12:43;97156.25;;;33.43;49.90
72210;BME280;60113;48.762;12.302;2023-06-22T10:15:21;97152.09;;;33.20;46.06
72210;BME280;60113;48.762;12.302;2023-06-22T10:17:47;97153.09;;;32.93;49.65
72210;BME280;60113;48.762;12.302;2023-06-22T10:20:25;97147.94;;;33.02;49.99
72210;BME280;60113;48.762;12.302;2023-06-22T10:22:51;97157.00;;;33.13;50.73
72210;BME280;60113;48.762;12.302;2023-06-22T10:25:17;97154.06;;;33.35;49.64
72210;BME280;60113;48.762;12.302;2023-06-22T10:27:45;97146.47;;;33.53;49.38
72210;BME280;60113;48.762;12.302;2023-06-22T10:30:20;97147.03;;;33.55;39.78
72210;BME280;60113;48.762;12.302;2023-06-22T10:32:45;97138.03;;;33.44;47.59
72210;BME280;60113;48.762;12.302;2023-06-22T10:35:14;97141.28;;;33.30;48.04
72210;BME280;60113;48.762;12.302;2023-06-22T10:37:45;97138.59;;;33.51;49.04
72210;BME280;60113;48.762;12.302;2023-06-22T10:40:15;97135.91;;;33.62;39.64
72210;BME280;60113;48.762;12.302;2023-06-22T10:42:41;97127.19;;;33.65;46.99
72210;BME280;60113;48.762;12.302;2023-06-22T10:45:07;97130.13;;;33.53;41.63
72210;BME280;60113;48.762;12.302;2023-06-22T10:47:36;97129.03;;;33.43;46.88
72210;BME280;60113;48.762;12.302;2023-06-22T10:50:05;97126.59;;;33.58;47.53
72210;BME280;60113;48.762;12.302;2023-06-22T10:52:43;97127.47;;;33.74;48.00
72210;BME280;60113;48.762;12.302;2023-06-22T10:55:11;97124.22;;;33.92;48.83
72210;BME280;60113;48.762;12.302;2023-06-22T10:57:39;97123.91;;;34.10;46.33
72210;BME280;60113;48.762;12.302;2023-06-22T11:00:27;97116.59;;;34.15;47.16
72210;BME280;60113;48.762;12.302;2023-06-22T11:03:01;97111.69;;;34.28;47.53
72210;BME280;60113;48.762;12.302;2023-06-22T11:05:30;97104.56;;;34.32;39.31
72210;BME280;60113;48.762;12.302;2023-06-22T11:07:55;97113.00;;;34.41;46.83
72210;BME280;60113;48.762;12.302;2023-06-22T11:10:23;97105.09;;;34.50;42.50
72210;BME280;60113;48.762;12.302;2023-06-22T11:12:49;97104.25;;;34.49;44.83
72210;BME280;60113;48.762;12.302;2023-06-22T11:15:14;97105.59;;;34.67;47.69
72210;BME280;60113;48.762;12.302;2023-06-22T11:17:43;97092.72;;;34.84;47.56
72210;BME280;60113;48.762;12.302;2023-06-22T11:20:11;97104.22;;;34.65;47.45
72210;BME280;60113;48.762;12.302;2023-06-22T11:22:49;97085.38;;;34.74;47.55
72210;BME280;60113;48.762;12.302;2023-06-22T11:25:14;97084.75;;;34.92;46.77
72210;BME280;60113;48.762;12.302;2023-06-22T11:27:55;97086.00;;;35.16;47.03
72210;BME280;60113;48.762;12.302;2023-06-22T11:30:32;97075.97;;;35.01;42.50
72210;BME280;60113;48.762;12.302;2023-06-22T11:33:08;97077.81;;;35.16;46.74
72210;BME280;60113;48.762;12.302;2023-06-22T11:35:36;97068.16;;;35.34;46.42
72210;BME280;60113;48.762;12.302;2023-06-22T11:38:05;97064.66;;;35.63;45.03
72210;BME280;60113;48.762;12.302;2023-06-22T11:40:33;97066.19;;;35.80;46.35
72210;BME280;60113;48.762;12.302;2023-06-22T11:43:16;97065.56;;;35.88;44.95
72210;BME280;60113;48.762;12.302;2023-06-22T11:45:42;97052.69;;;35.94;46.41
72210;BME280;60113;48.762;12.302;2023-06-22T11:48:07;97047.88;;;36.10;46.17
72210;BME280;60113;48.762;12.302;2023-06-22T11:50:36;97053.50;;;36.24;46.71
72210;BME280;60113;48.762;12.302;2023-06-22T11:53:21;97047.84;;;36.40;44.70
72210;BME280;60113;48.762;12.302;2023-06-22T11:55:46;97040.34;;;36.51;46.17
72210;BME280;60113;48.762;12.302;2023-06-22T11:58:12;97039.31;;;36.66;43.36
72210;BME280;60113;48.762;12.302;2023-06-22T12:00:38;97037.38;;;36.47;45.17
72210;BME280;60113;48.762;12.302;2023-06-22T12:03:03;97033.88;;;36.41;45.95
72210;BME280;60113;48.762;12.302;2023-06-22T12:05:32;97034.31;;;36.30;45.15
72210;BME280;60113;48.762;12.302;2023-06-22T12:08:04;97018.91;;;36.09;44.56
72210;BME280;60113;48.762;12.302;2023-06-22T12:10:49;97018.53;;;35.91;44.76
72210;BME280;60113;48.762;12.302;2023-06-22T12:13:21;97016.75;;;35.82;44.65
72210;BME280;60113;48.762;12.302;2023-06-22T12:15:49;97018.75;;;35.65;45.00
72210;BME280;60113;48.762;12.302;2023-06-22T12:18:17;97010.38;;;35.57;45.44
72210;BME280;60113;48.762;12.302;2023-06-22T12:20:51;97016.72;;;35.47;45.47
72210;BME280;60113;48.762;12.302;2023-06-22T12:23:16;97004.09;;;35.56;45.75
72210;BME280;60113;48.762;12.302;2023-06-22T12:25:42;97012.06;;;35.82;45.86
72210;BME280;60113;48.762;12.302;2023-06-22T12:28:13;97006.56;;;36.12;40.27
72210;BME280;60113;48.762;12.302;2023-06-22T12:30:39;96997.47;;;36.22;43.28
72210;BME280;60113;48.762;12.302;2023-06-22T12:33:04;96998.97;;;36.33;45.50
72210;BME280;60113;48.762;12.302;2023-06-22T12:35:30;96993.59;;;36.28;44.61
72210;BME280;60113;48.762;12.302;2023-06-22T12:38:01;96987.00;;;36.29;45.31
72210;BME280;60113;48.762;12.302;2023-06-22T12:40:31;96987.44;;;36.36;44.57
72210;BME280;60113;48.762;12.302;2023-06-22T12:42:56;96989.50;;;36.50;40.87
72210;BME280;60113;48.762;12.302;2023-06-22T12:45:22;96982.75;;;36.61;44.09
72210;BME280;60113;48.762;12.302;2023-06-22T12:47:47;96981.13;;;36.60;42.10
72210;BME280;60113;48.762;12.302;2023-06-22T12:50:15;96978.53;;;36.69;44.85
72210;BME280;60113;48.762;12.302;2023-06-22T12:52:40;96974.59;;;36.81;44.26
72210;BME280;60113;48.762;12.302;2023-06-22T12:55:09;96969.69;;;36.97;44.17
72210;BME280;60113;48.762;12.302;2023-06-22T12:57:35;96973.19;;;37.02;43.77
72210;BME280;60113;48.762;12.302;2023-06-22T13:00:00;96968.59;;;36.98;43.07
72210;BME280;60113;48.762;12.302;2023-06-22T13:02:28;96965.94;;;36.93;42.04
72210;BME280;60113;48.762;12.302;2023-06-22T13:04:55;96970.75;;;37.01;33.30
72210;BME280;60113;48.762;12.302;2023-06-22T13:07:20;96960.59;;;37.01;43.53
72210;BME280;60113;48.762;12.302;2023-06-22T13:09:46;96966.59;;;37.23;43.43